sensor_id;sensor_type;location;lat;lon;timestamp;pressure;altitude;pressure_sealevel;temperature;humidity
27358;BME280;14831;50.474;7.616;2023-01-30T00:01:58;98460;;;-1.1;96.9
27358;BME280;14831;50.474;7.616;2023-01-30T00:06:58;98450;;;-1.1;97.4
27358;BME280;14831;50.474;7.616;2023-01-30T00:11:58;98440;;;-1.2;97.6
27358;BME280;14831;50.474;7.616;2023-01-30T00:16:58;98440;;;-1.2;97.7
27358;BME280;14831;50.474;7.616;2023-01-30T00:21:58;98420;;;-1.2;97.7
27358;BME280;14831;50.474;7.616;2023-01-30T00:26:58;98410;;;-1.1;97.2
27358;BME280;14831;50.474;7.616;2023-01-30T00:31:58;98450;;;-1.1;97.2
27358;BME280;14831;50.474;7.616;2023-01-30T00:36:58;98430;;;-1.1;96.8
27358;BME280;14831;50.474;7.616;2023-01-30T00:41:58;98420;;;-1.1;96.5
27358;BME280;14831;50.474;7.616;2023-01-30T00:46:58;98410;;;-1.1;96.6
27358;BME280;14831;50.474;7.616;2023-01-30T00:51:58;98390;;;-1.0;96.0
27358;BME280;14831;50.474;7.616;2023-01-30T00:56:58;98370;;;-1.0;96.1
27358;BME280;14831;50.474;7.616;2023-01-30T01:01:58;98380;;;-1.0;95.9
27358;BME280;14831;50.474;7.616;2023-01-30T01:06:58;98370;;;-1.0;96.1
27358;BME280;14831;50.474;7.616;2023-01-30T01:11:59;98360;;;-1.0;95.8
27358;BME280;14831;50.474;7.616;2023-01-30T01:16:58;98360;;;-0.9;95.9
27358;BME280;14831;50.474;7.616;2023-01-30T01:21:58;98350;;;-0.9;95.7
27358;BME280;14831;50.474;7.616;2023-01-30T01:26:58;98340;;;-0.9;95.9
27358;BME280;14831;50.474;7.616;2023-01-30T01:31:58;98330;;;-0.9;96.1
27358;BME280;14831;50.474;7.616;2023-01-30T01:36:58;98340;;;-0.8;96.2
27358;BME280;14831;50.474;7.616;2023-01-30T01:41:58;98320;;;-0.7;96.1
27358;BME280;14831;50.474;7.616;2023-01-30T01:46:58;98310;;;-0.7;96.1
27358;BME280;14831;50.474;7.616;2023-01-30T01:51:59;98310;;;-0.7;96.1
27358;BME280;14831;50.474;7.616;2023-01-30T01:56:58;98320;;;-0.6;96.0
27358;BME280;14831;50.474;7.616;2023-01-30T02:01:59;98320;;;-0.6;95.8
27358;BME280;14831;50.474;7.616;2023-01-30T02:06:58;98310;;;-0.6;95.8
27358;BME280;14831;50.474;7.616;2023-01-30T02:11:58;98310;;;-0.5;95.9
27358;BME280;14831;50.474;7.616;2023-01-30T02:16:58;98300;;;-0.5;95.8
27358;BME280;14831;50.474;7.616;2023-01-30T02:22:06;98290;;;-0.4;95.7
27358;BME280;14831;50.474;7.616;2023-01-30T02:27:06;98300;;;-0.4;95.8
27358;BME280;14831;50.474;7.616;2023-01-30T02:31:59;98300;;;-0.4;95.8
27358;BME280;14831;50.474;7.616;2023-01-30T02:37:00;98280;;;-0.4;95.9
27358;BME280;14831;50.474;7.616;2023-01-30T02:41:59;98280;;;-0.4;95.9
27358;BME280;14831;50.474;7.616;2023-01-30T02:47:00;98280;;;-0.3;96.0
27358;BME280;14831;50.474;7.616;2023-01-30T02:51:58;98290;;;-0.3;96.0
27358;BME280;14831;50.474;7.616;2023-01-30T02:56:58;98280;;;-0.3;96.2
27358;BME280;14831;50.474;7.616;2023-01-30T03:02:09;98280;;;-0.3;96.3
27358;BME280;14831;50.474;7.616;2023-01-30T03:07:02;98270;;;-0.3;96.3
27358;BME280;14831;50.474;7.616;2023-01-30T03:11:59;98250;;;-0.3;96.5
27358;BME280;14831;50.474;7.616;2023-01-30T03:16:58;98230;;;-0.3;96.6
27358;BME280;14831;50.474;7.616;2023-01-30T03:21:58;98240;;;-0.3;96.8
27358;BME280;14831;50.474;7.616;2023-01-30T03:26:59;98220;;;-0.3;96.9
27358;BME280;14831;50.474;7.616;2023-01-30T03:31:58;98220;;;-0.3;97.1
27358;BME280;14831;50.474;7.616;2023-01-30T03:36:58;98220;;;-0.3;97.2
27358;BME280;14831;50.474;7.616;2023-01-30T03:41:58;98230;;;-0.2;97.4
27358;BME280;14831;50.474;7.616;2023-01-30T03:46:58;98200;;;-0.2;97.5
27358;BME280;14831;50.474;7.616;2023-01-30T03:51:58;98220;;;-0.2;97.7
27358;BME280;14831;50.474;7.616;2023-01-30T03:56:58;98210;;;-0.1;97.8
27358;BME280;14831;50.474;7.616;2023-01-30T04:01:58;98220;;;-0.1;98.0
27358;BME280;14831;50.474;7.616;2023-01-30T04:06:58;98190;;;-0.0;98.2
27358;BME280;14831;50.474;7.616;2023-01-30T04:11:58;98190;;;0.0;94.7
27358;BME280;14831;50.474;7.616;2023-01-30T04:16:58;98180;;;0.0;95.0
27358;BME280;14831;50.474;7.616;2023-01-30T04:21:58;98170;;;0.1;95.1
27358;BME280;14831;50.474;7.616;2023-01-30T04:26:58;98160;;;0.1;95.3
27358;BME280;14831;50.474;7.616;2023-01-30T04:31:58;98140;;;0.1;95.3
27358;BME280;14831;50.474;7.616;2023-01-30T04:36:58;98130;;;0.1;95.4
27358;BME280;14831;50.474;7.616;2023-01-30T04:41:58;98120;;;0.0;95.6
27358;BME280;14831;50.474;7.616;2023-01-30T04:46:58;98120;;;0.0;95.7
27358;BME280;14831;50.474;7.616;2023-01-30T04:51:58;98130;;;-0.0;99.5
27358;BME280;14831;50.474;7.616;2023-01-30T04:56:58;98130;;;-0.0;99.7
27358;BME280;14831;50.474;7.616;2023-01-30T05:01:58;98130;;;0.1;95.9
27358;BME280;14831;50.474;7.616;2023-01-30T05:06:58;98120;;;0.1;95.9
27358;BME280;14831;50.474;7.616;2023-01-30T05:11:58;98120;;;0.1;96.0
27358;BME280;14831;50.474;7.616;2023-01-30T05:16:58;98110;;;0.1;96.1
27358;BME280;14831;50.474;7.616;2023-01-30T05:21:58;98100;;;0.1;96.2
27358;BME280;14831;50.474;7.616;2023-01-30T05:26:58;98080;;;0.1;96.2
27358;BME280;14831;50.474;7.616;2023-01-30T05:31:58;98070;;;0.1;96.2
27358;BME280;14831;50.474;7.616;2023-01-30T05:36:58;98060;;;0.1;96.1
27358;BME280;14831;50.474;7.616;2023-01-30T05:41:58;98050;;;0.1;96.2
27358;BME280;14831;50.474;7.616;2023-01-30T05:46:58;98050;;;0.1;96.1
27358;BME280;14831;50.474;7.616;2023-01-30T05:51:58;98060;;;0.2;96.1
27358;BME280;14831;50.474;7.616;2023-01-30T05:56:58;98050;;;0.2;96.1
27358;BME280;14831;50.474;7.616;2023-01-30T06:01:58;98070;;;0.2;95.9
27358;BME280;14831;50.474;7.616;2023-01-30T06:06:58;98050;;;0.2;95.8
27358;BME280;14831;50.474;7.616;2023-01-30T06:11:58;98060;;;0.3;95.7
27358;BME280;14831;50.474;7.616;2023-01-30T06:16:58;98080;;;0.3;95.6
27358;BME280;14831;50.474;7.616;2023-01-30T06:21:58;98060;;;0.4;95.5
27358;BME280;14831;50.474;7.616;2023-01-30T06:26:58;98060;;;0.4;95.3
27358;BME280;14831;50.474;7.616;2023-01-30T06:31:58;98060;;;0.4;95.3
27358;BME280;14831;50.474;7.616;2023-01-30T06:36:58;98070;;;0.4;95.5
27358;BME280;14831;50.474;7.616;2023-01-30T06:41:58;98060;;;0.3;95.7
27358;BME280;14831;50.474;7.616;2023-01-30T06:46:58;98060;;;0.4;96.0
27358;BME280;14831;50.474;7.616;2023-01-30T06:51:58;98070;;;0.4;96.2
27358;BME280;14831;50.474;7.616;2023-01-30T06:56:58;98080;;;0.4;96.3
27358;BME280;14831;50.474;7.616;2023-01-30T07:01:58;98100;;;0.5;96.3
27358;BME280;14831;50.474;7.616;2023-01-30T07:06:58;98090;;;0.6;96.3
27358;BME280;14831;50.474;7.616;2023-01-30T07:11:58;98100;;;0.6;96.3
27358;BME280;14831;50.474;7.616;2023-01-30T07:16:58;98080;;;0.8;96.4
27358;BME280;14831;50.474;7.616;2023-01-30T07:21:58;98080;;;0.8;96.4
27358;BME280;14831;50.474;7.616;2023-01-30T07:26:58;98080;;;0.9;96.4
27358;BME280;14831;50.474;7.616;2023-01-30T07:31:58;98100;;;1.0;96.4
27358;BME280;14831;50.474;7.616;2023-01-30T07:36:58;98110;;;1.1;96.4
27358;BME280;14831;50.474;7.616;2023-01-30T07:41:58;98100;;;1.1;96.4
27358;BME280;14831;50.474;7.616;2023-01-30T07:46:58;98110;;;1.2;96.4
27358;BME280;14831;50.474;7.616;2023-01-30T07:51:58;98110;;;1.2;96.4
27358;BME280;14831;50.474;7.616;2023-01-30T07:56:58;98080;;;1.3;96.4
27358;BME280;14831;50.474;7.616;2023-01-30T08:01:58;98090;;;1.3;96.4
27358;BME280;14831;50.474;7.616;2023-01-30T08:06:58;98100;;;1.2;96.4
27358;BME280;14831;50.474;7.616;2023-01-30T08:11:58;98100;;;1.2;96.4
27358;BME280;14831;50.474;7.616;2023-01-30T08:16:58;98100;;;1.2;96.4
27358;BME280;14831;50.474;7.616;2023-01-30T08:21:58;98100;;;1.2;96.4
27358;BME280;14831;50.474;7.616;2023-01-30T08:26:58;98120;;;1.2;96.4
27358;BME280;14831;50.474;7.616;2023-01-30T08:31:58;98130;;;1.2;96.4
27358;BME280;14831;50.474;7.616;2023-01-30T08:36:58;98100;;;1.1;96.4
27358;BME280;14831;50.474;7.616;2023-01-30T08:41:58;98100;;;1.2;96.4
27358;BME280;14831;50.474;7.616;2023-01-30T08:46:58;98110;;;1.1;96.4
27358;BME280;14831;50.474;7.616;2023-01-30T08:51:58;98110;;;1.1;96.4
27358;BME280;14831;50.474;7.616;2023-01-30T08:56:58;98110;;;1.1;96.4
27358;BME280;14831;50.474;7.616;2023-01-30T09:01:58;98120;;;1.1;96.4
27358;BME280;14831;50.474;7.616;2023-01-30T09:06:58;98110;;;1.1;96.4
27358;BME280;14831;50.474;7.616;2023-01-30T09:11:58;98110;;;1.2;96.4
27358;BME280;14831;50.474;7.616;2023-01-30T09:16:58;98120;;;1.2;96.4
27358;BME280;14831;50.474;7.616;2023-01-30T09:21:58;98120;;;1.3;96.4
27358;BME280;14831;50.474;7.616;2023-01-30T09:26:58;98120;;;1.4;96.5
27358;BME280;14831;50.474;7.616;2023-01-30T09:31:59;98130;;;1.5;96.5
27358;BME280;14831;50.474;7.616;2023-01-30T09:36:58;98120;;;1.5;96.3
27358;BME280;14831;50.474;7.616;2023-01-30T09:42:04;98150;;;1.5;96.1
27358;BME280;14831;50.474;7.616;2023-01-30T09:46:59;98150;;;1.5;96.2
27358;BME280;14831;50.474;7.616;2023-01-30T09:52:01;98150;;;1.6;96.4
27358;BME280;14831;50.474;7.616;2023-01-30T09:57:04;98130;;;1.7;96.4
27358;BME280;14831;50.474;7.616;2023-01-30T10:02:00;98120;;;1.9;96.1
27358;BME280;14831;50.474;7.616;2023-01-30T10:07:00;98150;;;1.9;95.9
27358;BME280;14831;50.474;7.616;2023-01-30T10:12:02;98150;;;1.8;95.7
27358;BME280;14831;50.474;7.616;2023-01-30T10:17:00;98140;;;1.8;95.8
27358;BME280;14831;50.474;7.616;2023-01-30T10:21:59;98150;;;2.0;95.8
27358;BME280;14831;50.474;7.616;2023-01-30T10:26:58;98130;;;2.0;95.6
27358;BME280;14831;50.474;7.616;2023-01-30T10:31:59;98120;;;2.3;95.4
27358;BME280;14831;50.474;7.616;2023-01-30T10:36:59;98110;;;2.7;94.8
27358;BME280;14831;50.474;7.616;2023-01-30T10:42:01;98070;;;3.0;94.7
27358;BME280;14831;50.474;7.616;2023-01-30T10:47:03;98120;;;3.2;92.6
27358;BME280;14831;50.474;7.616;2023-01-30T10:51:59;98150;;;3.4;92.6
27358;BME280;14831;50.474;7.616;2023-01-30T10:57:00;98160;;;3.6;91.4
27358;BME280;14831;50.474;7.616;2023-01-30T11:01:59;98150;;;3.5;91.3
27358;BME280;14831;50.474;7.616;2023-01-30T11:06:59;98140;;;3.6;92.1
27358;BME280;14831;50.474;7.616;2023-01-30T11:11:58;98140;;;3.7;90.3
27358;BME280;14831;50.474;7.616;2023-01-30T11:16:58;98160;;;3.9;90.4
27358;BME280;14831;50.474;7.616;2023-01-30T11:21:59;98150;;;4.0;90.9
27358;BME280;14831;50.474;7.616;2023-01-30T11:27:08;98150;;;4.2;85.9
27358;BME280;14831;50.474;7.616;2023-01-30T11:32:00;98170;;;4.4;85.0
27358;BME280;14831;50.474;7.616;2023-01-30T11:37:10;98150;;;4.5;81.0
27358;BME280;14831;50.474;7.616;2023-01-30T11:42:00;98160;;;4.7;79.1
27358;BME280;14831;50.474;7.616;2023-01-30T11:46:59;98150;;;4.7;79.7
27358;BME280;14831;50.474;7.616;2023-01-30T11:51:58;98150;;;4.8;77.6
27358;BME280;14831;50.474;7.616;2023-01-30T11:57:00;98150;;;4.9;77.2
27358;BME280;14831;50.474;7.616;2023-01-30T12:02:09;98150;;;4.9;77.3
27358;BME280;14831;50.474;7.616;2023-01-30T12:07:04;98160;;;4.9;78.7
27358;BME280;14831;50.474;7.616;2023-01-30T12:11:58;98140;;;5.0;74.5
27358;BME280;14831;50.474;7.616;2023-01-30T12:17:01;98140;;;5.0;73.4
27358;BME280;14831;50.474;7.616;2023-01-30T12:22:00;98160;;;5.1;71.7
27358;BME280;14831;50.474;7.616;2023-01-30T12:27:00;98140;;;5.0;74.6
27358;BME280;14831;50.474;7.616;2023-01-30T12:32:01;98130;;;5.1;72.0
27358;BME280;14831;50.474;7.616;2023-01-30T12:37:01;98140;;;5.0;73.2
27358;BME280;14831;50.474;7.616;2023-01-30T12:42:02;98150;;;5.0;73.3
27358;BME280;14831;50.474;7.616;2023-01-30T12:47:03;98150;;;5.0;74.6
27358;BME280;14831;50.474;7.616;2023-01-30T12:52:10;98150;;;5.1;73.3
27358;BME280;14831;50.474;7.616;2023-01-30T12:57:01;98140;;;5.2;73.4
27358;BME280;14831;50.474;7.616;2023-01-30T13:02:05;98150;;;5.2;73.4
27358;BME280;14831;50.474;7.616;2023-01-30T13:07:00;98160;;;5.2;73.0
27358;BME280;14831;50.474;7.616;2023-01-30T13:11:59;98150;;;5.2;74.0
27358;BME280;14831;50.474;7.616;2023-01-30T13:17:02;98160;;;5.2;73.2
27358;BME280;14831;50.474;7.616;2023-01-30T13:22:00;98200;;;5.1;74.2
27358;BME280;14831;50.474;7.616;2023-01-30T13:26:58;98200;;;5.1;75.4
27358;BME280;14831;50.474;7.616;2023-01-30T13:31:58;98180;;;4.9;76.2
27358;BME280;14831;50.474;7.616;2023-01-30T13:36:59;98190;;;5.0;73.5
27358;BME280;14831;50.474;7.616;2023-01-30T13:41:58;98170;;;5.1;72.2
27358;BME280;14831;50.474;7.616;2023-01-30T13:47:02;98140;;;5.2;73.2
27358;BME280;14831;50.474;7.616;2023-01-30T13:51:59;98150;;;5.3;74.5
27358;BME280;14831;50.474;7.616;2023-01-30T13:57:00;98200;;;5.3;72.8
27358;BME280;14831;50.474;7.616;2023-01-30T14:02:15;98230;;;5.3;73.5
27358;BME280;14831;50.474;7.616;2023-01-30T14:07:06;98250;;;5.0;74.9
27358;BME280;14831;50.474;7.616;2023-01-30T14:11:59;98250;;;4.8;77.7
27358;BME280;14831;50.474;7.616;2023-01-30T14:17:07;98270;;;4.6;79.3
27358;BME280;14831;50.474;7.616;2023-01-30T14:21:59;98270;;;4.7;78.7
27358;BME280;14831;50.474;7.616;2023-01-30T14:27:00;98270;;;4.8;75.9
27358;BME280;14831;50.474;7.616;2023-01-30T14:31:58;98260;;;4.8;75.6
27358;BME280;14831;50.474;7.616;2023-01-30T14:36:58;98280;;;4.8;73.1
27358;BME280;14831;50.474;7.616;2023-01-30T14:42:18;98280;;;4.8;73.6
27358;BME280;14831;50.474;7.616;2023-01-30T14:46:58;98280;;;4.8;73.9
27358;BME280;14831;50.474;7.616;2023-01-30T14:51:58;98290;;;4.8;73.0
27358;BME280;14831;50.474;7.616;2023-01-30T14:56:58;98320;;;4.8;73.9
27358;BME280;14831;50.474;7.616;2023-01-30T15:02:00;98320;;;4.7;74.3
27358;BME280;14831;50.474;7.616;2023-01-30T15:06:59;98330;;;4.6;74.6
27358;BME280;14831;50.474;7.616;2023-01-30T15:12:03;98330;;;4.6;74.9
27358;BME280;14831;50.474;7.616;2023-01-30T15:17:02;98340;;;4.7;73.7
27358;BME280;14831;50.474;7.616;2023-01-30T15:22:01;98340;;;4.7;73.9
27358;BME280;14831;50.474;7.616;2023-01-30T15:27:00;98350;;;4.7;73.2
27358;BME280;14831;50.474;7.616;2023-01-30T15:31:59;98350;;;4.7;73.1
27358;BME280;14831;50.474;7.616;2023-01-30T15:36:58;98360;;;4.7;72.4
27358;BME280;14831;50.474;7.616;2023-01-30T15:42:00;98370;;;4.5;75.0
27358;BME280;14831;50.474;7.616;2023-01-30T15:47:02;98350;;;4.5;73.7
27358;BME280;14831;50.474;7.616;2023-01-30T15:51:58;98370;;;4.4;74.6
27358;BME280;14831;50.474;7.616;2023-01-30T15:56:58;98370;;;4.4;74.0
27358;BME280;14831;50.474;7.616;2023-01-30T16:01:59;98390;;;4.3;74.3
27358;BME280;14831;50.474;7.616;2023-01-30T16:06:58;98390;;;4.2;74.5
27358;BME280;14831;50.474;7.616;2023-01-30T16:11:58;98390;;;4.2;74.7
27358;BME280;14831;50.474;7.616;2023-01-30T16:16:59;98400;;;4.2;74.7
27358;BME280;14831;50.474;7.616;2023-01-30T16:21:59;98420;;;4.2;74.9
27358;BME280;14831;50.474;7.616;2023-01-30T16:26:59;98420;;;4.2;75.2
27358;BME280;14831;50.474;7.616;2023-01-30T16:31:58;98430;;;4.2;75.2
27358;BME280;14831;50.474;7.616;2023-01-30T16:37:00;98450;;;4.2;75.5
27358;BME280;14831;50.474;7.616;2023-01-30T16:41:58;98470;;;4.2;75.8
27358;BME280;14831;50.474;7.616;2023-01-30T16:46:59;98470;;;4.2;76.3
27358;BME280;14831;50.474;7.616;2023-01-30T16:51:59;98470;;;4.3;75.9
27358;BME280;14831;50.474;7.616;2023-01-30T16:56:58;98480;;;4.3;75.3
27358;BME280;14831;50.474;7.616;2023-01-30T17:01:59;98480;;;4.3;75.9
27358;BME280;14831;50.474;7.616;2023-01-30T17:06:59;98490;;;4.1;76.5
27358;BME280;14831;50.474;7.616;2023-01-30T17:11:58;98500;;;4.1;76.9
27358;BME280;14831;50.474;7.616;2023-01-30T17:16:59;98510;;;4.2;76.4
27358;BME280;14831;50.474;7.616;2023-01-30T17:21:58;98510;;;4.2;76.8
27358;BME280;14831;50.474;7.616;2023-01-30T17:26:59;98530;;;4.2;76.4
27358;BME280;14831;50.474;7.616;2023-01-30T17:31:58;98530;;;4.2;76.4
27358;BME280;14831;50.474;7.616;2023-01-30T17:36:58;98530;;;4.2;76.7
27358;BME280;14831;50.474;7.616;2023-01-30T17:41:58;98540;;;4.2;76.1
27358;BME280;14831;50.474;7.616;2023-01-30T17:46:58;98540;;;4.1;77.1
27358;BME280;14831;50.474;7.616;2023-01-30T17:51:58;98540;;;4.1;76.8
27358;BME280;14831;50.474;7.616;2023-01-30T17:56:59;98540;;;4.2;76.6
27358;BME280;14831;50.474;7.616;2023-01-30T18:01:58;98540;;;4.2;76.6
27358;BME280;14831;50.474;7.616;2023-01-30T18:06:59;98550;;;4.1;76.6
27358;BME280;14831;50.474;7.616;2023-01-30T18:11:58;98540;;;4.1;76.4
27358;BME280;14831;50.474;7.616;2023-01-30T18:16:59;98540;;;4.1;76.5
27358;BME280;14831;50.474;7.616;2023-01-30T18:21:58;98550;;;4.0;76.8
27358;BME280;14831;50.474;7.616;2023-01-30T18:26:58;98570;;;4.1;76.4
27358;BME280;14831;50.474;7.616;2023-01-30T18:31:58;98580;;;4.1;76.5
27358;BME280;14831;50.474;7.616;2023-01-30T18:36:58;98580;;;4.1;76.8
27358;BME280;14831;50.474;7.616;2023-01-30T18:41:58;98600;;;4.2;76.6
27358;BME280;14831;50.474;7.616;2023-01-30T18:46:58;98600;;;4.1;76.9
27358;BME280;14831;50.474;7.616;2023-01-30T18:51:58;98590;;;4.1;77.1
27358;BME280;14831;50.474;7.616;2023-01-30T18:56:58;98590;;;4.1;77.4
27358;BME280;14831;50.474;7.616;2023-01-30T19:01:58;98600;;;4.0;77.4
27358;BME280;14831;50.474;7.616;2023-01-30T19:06:58;98610;;;4.1;76.9
27358;BME280;14831;50.474;7.616;2023-01-30T19:11:58;98620;;;4.0;77.1
27358;BME280;14831;50.474;7.616;2023-01-30T19:16:58;98630;;;4.1;76.8
27358;BME280;14831;50.474;7.616;2023-01-30T19:21:58;98630;;;4.0;77.4
27358;BME280;14831;50.474;7.616;2023-01-30T19:26:58;98640;;;4.0;77.7
27358;BME280;14831;50.474;7.616;2023-01-30T19:32:00;98650;;;4.0;77.5
27358;BME280;14831;50.474;7.616;2023-01-30T19:36:58;98660;;;4.0;77.6
27358;BME280;14831;50.474;7.616;2023-01-30T19:41:58;98660;;;4.0;77.5
27358;BME280;14831;50.474;7.616;2023-01-30T19:46:58;98660;;;4.0;77.4
27358;BME280;14831;50.474;7.616;2023-01-30T19:51:58;98670;;;4.0;77.4
27358;BME280;14831;50.474;7.616;2023-01-30T19:56:58;98680;;;4.1;77.4
27358;BME280;14831;50.474;7.616;2023-01-30T20:01:58;98700;;;4.1;76.7
27358;BME280;14831;50.474;7.616;2023-01-30T20:06:58;98700;;;4.0;76.6
27358;BME280;14831;50.474;7.616;2023-01-30T20:11:58;98700;;;4.1;76.6
27358;BME280;14831;50.474;7.616;2023-01-30T20:16:58;98700;;;4.1;76.4
27358;BME280;14831;50.474;7.616;2023-01-30T20:21:58;98720;;;4.0;77.1
27358;BME280;14831;50.474;7.616;2023-01-30T20:26:58;98720;;;4.0;77.2
27358;BME280;14831;50.474;7.616;2023-01-30T20:31:58;98720;;;3.9;80.6
27358;BME280;14831;50.474;7.616;2023-01-30T20:36:58;98720;;;3.6;82.8
27358;BME280;14831;50.474;7.616;2023-01-30T20:41:58;98740;;;3.5;83.9
27358;BME280;14831;50.474;7.616;2023-01-30T20:46:58;98750;;;3.5;84.9
27358;BME280;14831;50.474;7.616;2023-01-30T20:51:58;98750;;;3.4;84.8
27358;BME280;14831;50.474;7.616;2023-01-30T20:56:58;98770;;;3.4;85.8
27358;BME280;14831;50.474;7.616;2023-01-30T21:01:58;98790;;;3.4;85.9
27358;BME280;14831;50.474;7.616;2023-01-30T21:06:58;98780;;;3.3;86.3
27358;BME280;14831;50.474;7.616;2023-01-30T21:11:58;98780;;;3.3;86.5
27358;BME280;14831;50.474;7.616;2023-01-30T21:16:58;98790;;;3.4;83.8
27358;BME280;14831;50.474;7.616;2023-01-30T21:21:58;98800;;;3.5;83.7
27358;BME280;14831;50.474;7.616;2023-01-30T21:26:58;98810;;;3.5;82.9
27358;BME280;14831;50.474;7.616;2023-01-30T21:31:58;98830;;;3.5;82.6
27358;BME280;14831;50.474;7.616;2023-01-30T21:36:58;98820;;;3.5;81.9
27358;BME280;14831;50.474;7.616;2023-01-30T21:41:58;98820;;;3.5;83.2
27358;BME280;14831;50.474;7.616;2023-01-30T21:46:58;98820;;;3.5;82.9
27358;BME280;14831;50.474;7.616;2023-01-30T21:51:58;98830;;;3.5;83.0
27358;BME280;14831;50.474;7.616;2023-01-30T21:56:58;98840;;;3.4;83.4
27358;BME280;14831;50.474;7.616;2023-01-30T22:01:58;98840;;;3.4;83.9
27358;BME280;14831;50.474;7.616;2023-01-30T22:06:58;98840;;;3.4;84.7
27358;BME280;14831;50.474;7.616;2023-01-30T22:11:58;98850;;;3.3;85.5
27358;BME280;14831;50.474;7.616;2023-01-30T22:16:58;98850;;;3.3;85.6
27358;BME280;14831;50.474;7.616;2023-01-30T22:21:58;98840;;;3.3;85.7
27358;BME280;14831;50.474;7.616;2023-01-30T22:26:58;98840;;;3.3;85.2
27358;BME280;14831;50.474;7.616;2023-01-30T22:31:58;98850;;;3.3;86.2
27358;BME280;14831;50.474;7.616;2023-01-30T22:36:58;98840;;;3.3;86.5
27358;BME280;14831;50.474;7.616;2023-01-30T22:41:58;98850;;;3.3;87.1
27358;BME280;14831;50.474;7.616;2023-01-30T22:46:58;98850;;;3.3;87.8
27358;BME280;14831;50.474;7.616;2023-01-30T22:51:58;98850;;;3.2;87.9
27358;BME280;14831;50.474;7.616;2023-01-30T22:56:58;98860;;;3.1;88.2
27358;BME280;14831;50.474;7.616;2023-01-30T23:01:58;98860;;;3.1;88.2
27358;BME280;14831;50.474;7.616;2023-01-30T23:06:58;98850;;;3.1;88.0
27358;BME280;14831;50.474;7.616;2023-01-30T23:11:58;98860;;;3.2;87.1
27358;BME280;14831;50.474;7.616;2023-01-30T23:16:58;98850;;;3.2;87.4
27358;BME280;14831;50.474;7.616;2023-01-30T23:21:58;98860;;;3.1;87.5
27358;BME280;14831;50.474;7.616;2023-01-30T23:27:00;98860;;;3.1;87.7
27358;BME280;14831;50.474;7.616;2023-01-30T23:31:58;98880;;;3.0;88.3
27358;BME280;14831;50.474;7.616;2023-01-30T23:36:58;98870;;;3.0;88.7
27358;BME280;14831;50.474;7.616;2023-01-30T23:41:58;98890;;;2.9;89.9
27358;BME280;14831;50.474;7.616;2023-01-30T23:46:58;98890;;;2.8;91.0
27358;BME280;14831;50.474;7.616;2023-01-30T23:51:58;98880;;;2.7;91.8
27358;BME280;14831;50.474;7.616;2023-01-30T23:56:58;98850;;;2.5;92.0
